Enter the Airport ICAO Code

Search by Airport or City

Current Weather

LEMG | Málaga Airport

Málaga, Andalusia, Spain

Last Update 25 Minutes Ago

Clear Sky

Temperature of 08 ºC

Light to Moderate Winds from NorthWest

Temperature

08 ºC

Dew Point Temperature

03 ºC

Relative Humidity

70.72 %

Wind Direction

NorthWest (300º, Without Significant Variations)

Wind Velocity

9 km/h (05 kt)

Gusts

None

Visibility

No Significant Reductions

Sea Level Pressure

1013 hPa (Hectopascals)

Layers of Clouds

None

METAR LEMG 052100Z 30005KT CAVOK 08/03 Q1013 NOSIG

Weather Forecast

LEMG | Málaga Airport

Málaga, Andalusia, Spain

Forecast valid for the next 21 Hours

From now on it is expected:

Clear Sky

Light to Moderate Winds from NorthWest

In 12 to 14 hours it is expected the begining of:

Moderate Winds from NorthWest

In 19 to 21 hours it is expected the begining of:

Light to Moderate Winds from NorthWest

Maximum Temperature

14 ºC in 17 Hours

Minimum Temperature

07 ºC in 10 Hours

TAF LEMG 051700Z 0518/0618 30005KT CAVOK TX14/0614Z TN07/0607Z BECMG 0609/0611 30015KT BECMG 0616/0618 30005KT